sensor_id;sensor_type;location;lat;lon;timestamp;pressure;altitude;pressure_sealevel;temperature;humidity
49122;BME280;35529;44.342;25.944;2023-02-13T00:01:04;102780.00;;;-0.96;100.00
49122;BME280;35529;44.342;25.944;2023-02-13T00:03:31;102780.75;;;-0.94;100.00
49122;BME280;35529;44.342;25.944;2023-02-13T00:05:57;102779.78;;;-0.92;100.00
49122;BME280;35529;44.342;25.944;2023-02-13T00:08:23;102777.09;;;-0.90;100.00
49122;BME280;35529;44.342;25.944;2023-02-13T00:10:49;102787.66;;;-0.93;100.00
49122;BME280;35529;44.342;25.944;2023-02-13T00:13:15;102792.09;;;-0.95;100.00
49122;BME280;35529;44.342;25.944;2023-02-13T00:15:41;102782.78;;;-1.01;100.00
49122;BME280;35529;44.342;25.944;2023-02-13T00:18:07;102793.13;;;-0.99;100.00
49122;BME280;35529;44.342;25.944;2023-02-13T00:20:33;102781.13;;;-1.04;100.00
49122;BME280;35529;44.342;25.944;2023-02-13T00:22:59;102777.69;;;-1.04;100.00
49122;BME280;35529;44.342;25.944;2023-02-13T00:25:28;102770.09;;;-1.10;100.00
49122;BME280;35529;44.342;25.944;2023-02-13T00:27:59;102783.16;;;-1.10;100.00
49122;BME280;35529;44.342;25.944;2023-02-13T00:30:28;102782.41;;;-1.14;100.00
49122;BME280;35529;44.342;25.944;2023-02-13T00:32:54;102782.41;;;-1.14;100.00
49122;BME280;35529;44.342;25.944;2023-02-13T00:35:22;102779.78;;;-1.12;100.00
49122;BME280;35529;44.342;25.944;2023-02-13T00:37:48;102786.66;;;-1.11;100.00
49122;BME280;35529;44.342;25.944;2023-02-13T00:40:17;102792.81;;;-1.12;100.00
49122;BME280;35529;44.342;25.944;2023-02-13T00:42:45;102790.31;;;-1.15;100.00
49122;BME280;35529;44.342;25.944;2023-02-13T00:45:19;102782.75;;;-1.22;100.00
49122;BME280;35529;44.342;25.944;2023-02-13T00:47:53;102782.03;;;-1.25;100.00
49122;BME280;35529;44.342;25.944;2023-02-13T00:50:22;102777.25;;;-1.36;100.00
49122;BME280;35529;44.342;25.944;2023-02-13T00:52:54;102787.97;;;-1.44;100.00
49122;BME280;35529;44.342;25.944;2023-02-13T00:55:23;102783.78;;;-1.48;100.00
49122;BME280;35529;44.342;25.944;2023-02-13T00:57:49;102775.06;;;-1.47;100.00
49122;BME280;35529;44.342;25.944;2023-02-13T01:00:16;102778.34;;;-1.42;100.00
49122;BME280;35529;44.342;25.944;2023-02-13T01:02:42;102771.22;;;-1.38;100.00
49122;BME280;35529;44.342;25.944;2023-02-13T01:05:08;102777.75;;;-1.48;100.00
49122;BME280;35529;44.342;25.944;2023-02-13T01:07:34;102780.56;;;-1.55;100.00
49122;BME280;35529;44.342;25.944;2023-02-13T01:10:00;102785.09;;;-1.60;100.00
49122;BME280;35529;44.342;25.944;2023-02-13T01:12:27;102772.16;;;-1.61;100.00
49122;BME280;35529;44.342;25.944;2023-02-13T01:14:53;102780.19;;;-1.67;100.00
49122;BME280;35529;44.342;25.944;2023-02-13T01:17:19;102775.72;;;-1.64;100.00
49122;BME280;35529;44.342;25.944;2023-02-13T01:19:45;102775.97;;;-1.70;100.00
49122;BME280;35529;44.342;25.944;2023-02-13T01:22:11;102763.84;;;-1.71;100.00
49122;BME280;35529;44.342;25.944;2023-02-13T01:24:37;102777.03;;;-1.76;100.00
49122;BME280;35529;44.342;25.944;2023-02-13T01:27:03;102775.38;;;-1.77;100.00
49122;BME280;35529;44.342;25.944;2023-02-13T01:29:32;102780.56;;;-1.77;100.00
49122;BME280;35529;44.342;25.944;2023-02-13T01:32:02;102778.88;;;-1.78;100.00
49122;BME280;35529;44.342;25.944;2023-02-13T01:34:33;102778.94;;;-1.79;100.00
49122;BME280;35529;44.342;25.944;2023-02-13T01:37:04;102787.59;;;-1.79;100.00
49122;BME280;35529;44.342;25.944;2023-02-13T01:39:30;102783.28;;;-1.80;100.00
49122;BME280;35529;44.342;25.944;2023-02-13T01:41:59;102774.75;;;-1.83;100.00
49122;BME280;35529;44.342;25.944;2023-02-13T01:44:47;102778.25;;;-1.84;100.00
49122;BME280;35529;44.342;25.944;2023-02-13T01:47:16;102774.84;;;-1.87;100.00
49122;BME280;35529;44.342;25.944;2023-02-13T01:49:48;102779.16;;;-1.86;100.00
49122;BME280;35529;44.342;25.944;2023-02-13T01:52:16;102777.38;;;-1.85;100.00
49122;BME280;35529;44.342;25.944;2023-02-13T01:54:42;102776.50;;;-1.84;100.00
49122;BME280;35529;44.342;25.944;2023-02-13T01:57:11;102765.28;;;-1.86;100.00
49122;BME280;35529;44.342;25.944;2023-02-13T01:59:59;102766.97;;;-1.85;100.00
49122;BME280;35529;44.342;25.944;2023-02-13T02:02:29;102770.31;;;-1.81;100.00
49122;BME280;35529;44.342;25.944;2023-02-13T02:05:01;102770.38;;;-1.83;100.00
49122;BME280;35529;44.342;25.944;2023-02-13T02:07:30;102772.03;;;-1.80;100.00
49122;BME280;35529;44.342;25.944;2023-02-13T02:09:58;102771.88;;;-1.77;100.00
49122;BME280;35529;44.342;25.944;2023-02-13T02:15:01;102771.06;;;-1.78;100.00
49122;BME280;35529;44.342;25.944;2023-02-13T02:17:28;102777.84;;;-1.74;100.00
49122;BME280;35529;44.342;25.944;2023-02-13T02:20:03;102773.41;;;-1.72;100.00
49122;BME280;35529;44.342;25.944;2023-02-13T02:32:53;102762.53;;;-1.59;100.00
49122;BME280;35529;44.342;25.944;2023-02-13T02:51:24;102765.31;;;-1.64;100.00
49122;BME280;35529;44.342;25.944;2023-02-13T02:56:34;102778.88;;;-1.56;100.00
49122;BME280;35529;44.342;25.944;2023-02-13T02:59:10;102782.28;;;-1.54;100.00
49122;BME280;35529;44.342;25.944;2023-02-13T03:01:55;102782.06;;;-1.49;100.00
49122;BME280;35529;44.342;25.944;2023-02-13T03:04:53;102785.56;;;-1.48;100.00
49122;BME280;35529;44.342;25.944;2023-02-13T03:07:41;102792.44;;;-1.47;100.00
49122;BME280;35529;44.342;25.944;2023-02-13T03:10:28;102793.44;;;-1.50;100.00
49122;BME280;35529;44.342;25.944;2023-02-13T03:13:16;102787.34;;;-1.50;100.00
49122;BME280;35529;44.342;25.944;2023-02-13T03:15:46;102776.09;;;-1.51;100.00
49122;BME280;35529;44.342;25.944;2023-02-13T03:18:42;102772.97;;;-1.61;100.00
49122;BME280;35529;44.342;25.944;2023-02-13T03:26:54;102773.75;;;-1.81;100.00
49122;BME280;35529;44.342;25.944;2023-02-13T03:29:27;102774.69;;;-1.82;100.00
49122;BME280;35529;44.342;25.944;2023-02-13T03:32:20;102783.34;;;-1.81;100.00
49122;BME280;35529;44.342;25.944;2023-02-13T03:35:00;102773.81;;;-1.82;100.00
49122;BME280;35529;44.342;25.944;2023-02-13T03:37:48;102781.69;;;-1.84;100.00
49122;BME280;35529;44.342;25.944;2023-02-13T03:40:56;102779.22;;;-1.87;100.00
49122;BME280;35529;44.342;25.944;2023-02-13T03:43:55;102792.25;;;-1.87;100.00
49122;BME280;35529;44.342;25.944;2023-02-13T03:46:24;102795.53;;;-1.82;100.00
49122;BME280;35529;44.342;25.944;2023-02-13T03:48:57;102794.72;;;-1.84;100.00
49122;BME280;35529;44.342;25.944;2023-02-13T03:51:44;102805.13;;;-1.84;100.00
49122;BME280;35529;44.342;25.944;2023-02-13T03:54:24;102807.78;;;-1.86;100.00
49122;BME280;35529;44.342;25.944;2023-02-13T03:57:10;102805.19;;;-1.86;100.00
49122;BME280;35529;44.342;25.944;2023-02-13T03:59:58;102788.59;;;-1.83;100.00
49122;BME280;35529;44.342;25.944;2023-02-13T04:02:27;102800.00;;;-1.86;100.00
49122;BME280;35529;44.342;25.944;2023-02-13T04:05:07;102796.63;;;-1.89;100.00
49122;BME280;35529;44.342;25.944;2023-02-13T04:07:38;102789.84;;;-1.93;100.00
49122;BME280;35529;44.342;25.944;2023-02-13T04:10:05;102784.97;;;-2.03;100.00
49122;BME280;35529;44.342;25.944;2023-02-13T04:12:34;102794.44;;;-2.00;100.00
49122;BME280;35529;44.342;25.944;2023-02-13T04:15:15;102797.91;;;-1.99;100.00
49122;BME280;35529;44.342;25.944;2023-02-13T04:17:48;102791.63;;;-1.94;100.00
49122;BME280;35529;44.342;25.944;2023-02-13T04:20:17;102798.56;;;-1.94;100.00
49122;BME280;35529;44.342;25.944;2023-02-13T04:22:44;102794.28;;;-1.95;100.00
49122;BME280;35529;44.342;25.944;2023-02-13T04:25:10;102799.56;;;-1.97;100.00
49122;BME280;35529;44.342;25.944;2023-02-13T04:27:37;102797.78;;;-1.96;100.00
49122;BME280;35529;44.342;25.944;2023-02-13T04:30:04;102797.91;;;-1.99;100.00
49122;BME280;35529;44.342;25.944;2023-02-13T04:32:30;102796.16;;;-1.99;100.00
49122;BME280;35529;44.342;25.944;2023-02-13T04:34:56;102810.00;;;-1.98;100.00
49122;BME280;35529;44.342;25.944;2023-02-13T04:37:22;102808.19;;;-1.96;100.00
49122;BME280;35529;44.342;25.944;2023-02-13T04:39:49;102802.94;;;-1.95;100.00
49122;BME280;35529;44.342;25.944;2023-02-13T04:42:15;102801.22;;;-1.96;100.00
49122;BME280;35529;44.342;25.944;2023-02-13T04:44:41;102812.56;;;-1.97;100.00
49122;BME280;35529;44.342;25.944;2023-02-13T04:47:07;102808.97;;;-1.94;100.00
49122;BME280;35529;44.342;25.944;2023-02-13T04:49:33;102801.16;;;-1.94;100.00
49122;BME280;35529;44.342;25.944;2023-02-13T04:51:59;102802.19;;;-1.98;100.00
49122;BME280;35529;44.342;25.944;2023-02-13T04:54:25;102804.78;;;-1.98;100.00
49122;BME280;35529;44.342;25.944;2023-02-13T04:56:51;102798.94;;;-2.04;100.00
49122;BME280;35529;44.342;25.944;2023-02-13T04:59:18;102809.22;;;-2.00;100.00
49122;BME280;35529;44.342;25.944;2023-02-13T05:01:44;102814.19;;;-1.94;100.00
49122;BME280;35529;44.342;25.944;2023-02-13T05:04:10;102810.69;;;-1.93;100.00
49122;BME280;35529;44.342;25.944;2023-02-13T05:06:41;102809.97;;;-1.97;100.00
49122;BME280;35529;44.342;25.944;2023-02-13T05:09:07;102802.31;;;-2.02;100.00
49122;BME280;35529;44.342;25.944;2023-02-13T05:11:34;102812.66;;;-2.00;100.00
49122;BME280;35529;44.342;25.944;2023-02-13T05:14:00;102816.13;;;-1.99;100.00
49122;BME280;35529;44.342;25.944;2023-02-13T05:16:26;102816.16;;;-2.01;100.00
49122;BME280;35529;44.342;25.944;2023-02-13T05:18:52;102821.34;;;-1.99;100.00
49122;BME280;35529;44.342;25.944;2023-02-13T05:21:20;102831.97;;;-2.06;100.00
49122;BME280;35529;44.342;25.944;2023-02-13T05:24:05;102826.53;;;-1.99;100.00
49122;BME280;35529;44.342;25.944;2023-02-13T05:26:33;102828.91;;;-1.93;100.00
49122;BME280;35529;44.342;25.944;2023-02-13T05:29:00;102837.47;;;-1.90;100.00
49122;BME280;35529;44.342;25.944;2023-02-13T05:31:46;102846.03;;;-1.86;100.00
49122;BME280;35529;44.342;25.944;2023-02-13T05:34:13;102852.75;;;-1.80;100.00
49122;BME280;35529;44.342;25.944;2023-02-13T05:36:41;102853.25;;;-1.71;100.00
49122;BME280;35529;44.342;25.944;2023-02-13T05:39:10;102852.00;;;-1.60;100.00
49122;BME280;35529;44.342;25.944;2023-02-13T05:41:38;102861.28;;;-1.53;100.00
49122;BME280;35529;44.342;25.944;2023-02-13T05:44:04;102863.53;;;-1.44;100.00
49122;BME280;35529;44.342;25.944;2023-02-13T05:46:32;102861.47;;;-1.36;100.00
49122;BME280;35529;44.342;25.944;2023-02-13T05:48:59;102849.19;;;-1.32;100.00
49122;BME280;35529;44.342;25.944;2023-02-13T05:51:25;102856.09;;;-1.31;100.00
49122;BME280;35529;44.342;25.944;2023-02-13T05:53:52;102849.78;;;-1.25;100.00
49122;BME280;35529;44.342;25.944;2023-02-13T05:56:21;102852.19;;;-1.21;100.00
49122;BME280;35529;44.342;25.944;2023-02-13T05:58:49;102860.75;;;-1.17;100.00
49122;BME280;35529;44.342;25.944;2023-02-13T06:01:18;102855.25;;;-1.09;100.00
49122;BME280;35529;44.342;25.944;2023-02-13T06:03:45;102856.69;;;-1.02;100.00
49122;BME280;35529;44.342;25.944;2023-02-13T06:06:14;102864.13;;;-0.93;100.00
49122;BME280;35529;44.342;25.944;2023-02-13T06:08:43;102858.03;;;-0.92;100.00
49122;BME280;35529;44.342;25.944;2023-02-13T06:11:09;102866.50;;;-0.87;100.00
49122;BME280;35529;44.342;25.944;2023-02-13T06:13:35;102865.16;;;-0.75;100.00
49122;BME280;35529;44.342;25.944;2023-02-13T06:16:08;102863.75;;;-0.61;100.00
49122;BME280;35529;44.342;25.944;2023-02-13T06:18:38;102843.25;;;-0.50;100.00
49122;BME280;35529;44.342;25.944;2023-02-13T06:21:05;102840.25;;;-0.41;100.00
49122;BME280;35529;44.342;25.944;2023-02-13T06:23:31;102857.16;;;-0.29;100.00
49122;BME280;35529;44.342;25.944;2023-02-13T06:26:03;102844.59;;;-0.21;100.00
49122;BME280;35529;44.342;25.944;2023-02-13T06:28:30;102843.38;;;-0.12;100.00
49122;BME280;35529;44.342;25.944;2023-02-13T06:30:56;102838.63;;;-0.04;100.00
49122;BME280;35529;44.342;25.944;2023-02-13T06:33:22;102849.50;;;0.06;100.00
49122;BME280;35529;44.342;25.944;2023-02-13T06:35:48;102851.44;;;0.22;100.00
49122;BME280;35529;44.342;25.944;2023-02-13T06:38:14;102858.72;;;0.34;100.00
49122;BME280;35529;44.342;25.944;2023-02-13T06:40:46;102853.78;;;0.47;100.00
49122;BME280;35529;44.342;25.944;2023-02-13T06:43:12;102861.97;;;0.58;100.00
49122;BME280;35529;44.342;25.944;2023-02-13T06:45:41;102846.03;;;0.82;100.00
49122;BME280;35529;44.342;25.944;2023-02-13T06:48:08;102858.28;;;0.99;100.00
49122;BME280;35529;44.342;25.944;2023-02-13T06:50:34;102849.22;;;1.06;100.00
49122;BME280;35529;44.342;25.944;2023-02-13T06:53:00;102845.91;;;1.20;100.00
49122;BME280;35529;44.342;25.944;2023-02-13T06:55:26;102841.84;;;1.32;100.00
49122;BME280;35529;44.342;25.944;2023-02-13T06:57:52;102847.69;;;1.55;100.00
49122;BME280;35529;44.342;25.944;2023-02-13T07:00:19;102848.66;;;1.70;100.00
49122;BME280;35529;44.342;25.944;2023-02-13T07:02:45;102846.47;;;1.78;100.00
49122;BME280;35529;44.342;25.944;2023-02-13T07:05:12;102841.09;;;1.81;100.00
49122;BME280;35529;44.342;25.944;2023-02-13T07:07:39;102844.47;;;1.83;100.00
49122;BME280;35529;44.342;25.944;2023-02-13T07:10:06;102839.84;;;1.88;100.00
49122;BME280;35529;44.342;25.944;2023-02-13T07:12:35;102846.44;;;1.95;100.00
49122;BME280;35529;44.342;25.944;2023-02-13T07:15:02;102834.53;;;2.06;100.00
49122;BME280;35529;44.342;25.944;2023-02-13T07:17:28;102839.31;;;2.15;100.00
49122;BME280;35529;44.342;25.944;2023-02-13T07:19:56;102832.03;;;2.20;100.00
49122;BME280;35529;44.342;25.944;2023-02-13T07:22:22;102835.91;;;2.29;100.00
49122;BME280;35529;44.342;25.944;2023-02-13T07:24:48;102840.34;;;2.44;100.00
49122;BME280;35529;44.342;25.944;2023-02-13T07:27:14;102838.03;;;2.54;100.00
49122;BME280;35529;44.342;25.944;2023-02-13T07:29:40;102830.69;;;2.61;100.00
49122;BME280;35529;44.342;25.944;2023-02-13T07:32:06;102829.31;;;2.70;100.00
49122;BME280;35529;44.342;25.944;2023-02-13T07:34:35;102822.88;;;2.75;100.00
49122;BME280;35529;44.342;25.944;2023-02-13T07:37:01;102826.94;;;2.81;100.00
49122;BME280;35529;44.342;25.944;2023-02-13T07:39:28;102834.47;;;2.87;100.00
49122;BME280;35529;44.342;25.944;2023-02-13T07:41:54;102823.94;;;3.03;100.00
49122;BME280;35529;44.342;25.944;2023-02-13T07:44:20;102821.94;;;3.07;100.00
49122;BME280;35529;44.342;25.944;2023-02-13T07:46:46;102815.03;;;3.06;100.00
49122;BME280;35529;44.342;25.944;2023-02-13T07:49:12;102819.06;;;3.11;100.00
49122;BME280;35529;44.342;25.944;2023-02-13T07:51:38;102814.50;;;3.15;100.00
49122;BME280;35529;44.342;25.944;2023-02-13T07:54:04;102817.34;;;3.26;100.00
49122;BME280;35529;44.342;25.944;2023-02-13T07:56:30;102824.66;;;3.35;100.00
49122;BME280;35529;44.342;25.944;2023-02-13T07:58:57;102823.53;;;3.40;100.00
49122;BME280;35529;44.342;25.944;2023-02-13T08:01:23;102814.34;;;3.47;100.00
49122;BME280;35529;44.342;25.944;2023-02-13T08:03:49;102816.53;;;3.55;100.00
49122;BME280;35529;44.342;25.944;2023-02-13T08:06:16;102815.25;;;3.62;100.00
49122;BME280;35529;44.342;25.944;2023-02-13T08:08:42;102808.97;;;3.64;100.00
49122;BME280;35529;44.342;25.944;2023-02-13T08:11:22;102812.78;;;3.73;100.00
49122;BME280;35529;44.342;25.944;2023-02-13T08:14:12;102803.50;;;3.82;100.00
49122;BME280;35529;44.342;25.944;2023-02-13T08:16:38;102806.50;;;3.90;100.00
49122;BME280;35529;44.342;25.944;2023-02-13T08:19:04;102798.53;;;3.92;100.00
49122;BME280;35529;44.342;25.944;2023-02-13T08:21:30;102799.00;;;3.98;100.00
49122;BME280;35529;44.342;25.944;2023-02-13T08:23:57;102795.88;;;4.06;100.00
49122;BME280;35529;44.342;25.944;2023-02-13T08:26:23;102802.44;;;4.13;100.00
49122;BME280;35529;44.342;25.944;2023-02-13T08:28:49;102800.75;;;4.12;100.00
49122;BME280;35529;44.342;25.944;2023-02-13T08:31:16;102796.97;;;4.16;100.00
49122;BME280;35529;44.342;25.944;2023-02-13T08:33:42;102803.66;;;4.22;100.00
49122;BME280;35529;44.342;25.944;2023-02-13T08:36:08;102803.16;;;4.30;100.00
49122;BME280;35529;44.342;25.944;2023-02-13T08:38:34;102786.78;;;4.39;100.00
49122;BME280;35529;44.342;25.944;2023-02-13T08:41:00;102784.31;;;4.50;100.00
49122;BME280;35529;44.342;25.944;2023-02-13T08:43:26;102775.94;;;4.58;100.00
49122;BME280;35529;44.342;25.944;2023-02-13T08:45:52;102773.38;;;4.57;100.00
49122;BME280;35529;44.342;25.944;2023-02-13T08:48:19;102763.59;;;4.59;100.00
49122;BME280;35529;44.342;25.944;2023-02-13T08:50:45;102766.03;;;4.62;100.00
49122;BME280;35529;44.342;25.944;2023-02-13T08:53:11;102763.94;;;4.67;100.00
49122;BME280;35529;44.342;25.944;2023-02-13T08:55:37;102772.28;;;4.74;100.00
49122;BME280;35529;44.342;25.944;2023-02-13T08:58:03;102770.47;;;4.74;100.00
49122;BME280;35529;44.342;25.944;2023-02-13T09:00:30;102759.34;;;4.83;100.00
49122;BME280;35529;44.342;25.944;2023-02-13T09:02:59;102758.00;;;4.91;100.00
49122;BME280;35529;44.342;25.944;2023-02-13T09:05:26;102750.00;;;4.92;100.00
49122;BME280;35529;44.342;25.944;2023-02-13T09:07:52;102737.06;;;4.89;100.00
49122;BME280;35529;44.342;25.944;2023-02-13T09:10:18;102734.94;;;5.07;100.00
49122;BME280;35529;44.342;25.944;2023-02-13T09:12:50;102725.19;;;5.09;100.00
49122;BME280;35529;44.342;25.944;2023-02-13T09:15:16;102722.75;;;5.19;100.00
49122;BME280;35529;44.342;25.944;2023-02-13T09:17:42;102727.56;;;5.38;100.00
49122;BME280;35529;44.342;25.944;2023-02-13T09:20:09;102722.84;;;5.43;100.00
49122;BME280;35529;44.342;25.944;2023-02-13T09:22:36;102716.16;;;5.50;100.00
49122;BME280;35529;44.342;25.944;2023-02-13T09:25:02;102705.97;;;5.59;100.00
49122;BME280;35529;44.342;25.944;2023-02-13T09:27:29;102710.00;;;5.76;100.00
49122;BME280;35529;44.342;25.944;2023-02-13T09:29:55;102707.91;;;5.81;100.00
49122;BME280;35529;44.342;25.944;2023-02-13T09:32:21;102693.53;;;5.85;100.00
49122;BME280;35529;44.342;25.944;2023-02-13T09:34:49;102696.19;;;5.98;100.00
49122;BME280;35529;44.342;25.944;2023-02-13T09:37:16;102695.81;;;6.02;100.00
49122;BME280;35529;44.342;25.944;2023-02-13T09:39:42;102687.38;;;6.10;100.00
49122;BME280;35529;44.342;25.944;2023-02-13T09:42:41;102683.22;;;6.19;100.00
49122;BME280;35529;44.342;25.944;2023-02-13T09:45:03;102675.59;;;6.27;100.00
49122;BME280;35529;44.342;25.944;2023-02-13T09:47:35;102671.06;;;6.41;100.00
49122;BME280;35529;44.342;25.944;2023-02-13T09:52:32;102663.38;;;6.37;100.00
49122;BME280;35529;44.342;25.944;2023-02-13T09:54:59;102661.22;;;6.43;100.00
49122;BME280;35529;44.342;25.944;2023-02-13T09:57:39;102647.72;;;6.47;100.00
49122;BME280;35529;44.342;25.944;2023-02-13T10:05:10;102637.66;;;6.64;100.00
49122;BME280;35529;44.342;25.944;2023-02-13T10:07:47;102625.78;;;6.58;100.00
49122;BME280;35529;44.342;25.944;2023-02-13T10:10:21;102627.03;;;6.41;100.00
49122;BME280;35529;44.342;25.944;2023-02-13T10:12:56;102626.94;;;6.43;100.00
49122;BME280;35529;44.342;25.944;2023-02-13T10:15:33;102628.16;;;6.50;100.00
49122;BME280;35529;44.342;25.944;2023-02-13T10:18:03;102615.84;;;6.62;100.00
49122;BME280;35529;44.342;25.944;2023-02-13T10:20:50;102613.78;;;6.65;100.00
49122;BME280;35529;44.342;25.944;2023-02-13T10:26:03;102606.72;;;6.77;100.00
49122;BME280;35529;44.342;25.944;2023-02-13T10:28:37;102600.38;;;6.68;100.00
49122;BME280;35529;44.342;25.944;2023-02-13T10:31:06;102583.78;;;6.78;100.00
49122;BME280;35529;44.342;25.944;2023-02-13T10:38:40;102590.75;;;7.01;100.00
49122;BME280;35529;44.342;25.944;2023-02-13T10:41:28;102587.66;;;7.08;100.00
49122;BME280;35529;44.342;25.944;2023-02-13T10:49:01;102580.66;;;7.29;100.00
49122;BME280;35529;44.342;25.944;2023-02-13T10:59:04;102549.97;;;7.49;100.00
49122;BME280;35529;44.342;25.944;2023-02-13T11:01:37;102543.72;;;7.50;100.00
49122;BME280;35529;44.342;25.944;2023-02-13T11:06:31;102531.06;;;7.54;100.00
49122;BME280;35529;44.342;25.944;2023-02-13T11:08:58;102531.66;;;7.58;100.00
49122;BME280;35529;44.342;25.944;2023-02-13T11:11:31;102536.13;;;7.57;100.00
49122;BME280;35529;44.342;25.944;2023-02-13T11:14:08;102533.22;;;7.60;100.00
49122;BME280;35529;44.342;25.944;2023-02-13T11:19:21;102527.22;;;7.58;100.00
49122;BME280;35529;44.342;25.944;2023-02-13T11:21:52;102508.28;;;7.53;100.00
49122;BME280;35529;44.342;25.944;2023-02-13T11:24:22;102514.78;;;7.49;100.00
49122;BME280;35529;44.342;25.944;2023-02-13T11:26:53;102503.59;;;7.45;100.00
49122;BME280;35529;44.342;25.944;2023-02-13T11:29:24;102512.69;;;7.52;100.00
49122;BME280;35529;44.342;25.944;2023-02-13T11:34:55;102504.78;;;7.52;100.00
49122;BME280;35529;44.342;25.944;2023-02-13T11:37:36;102502.34;;;7.61;100.00
49122;BME280;35529;44.342;25.944;2023-02-13T11:40:19;102501.22;;;7.75;100.00
49122;BME280;35529;44.342;25.944;2023-02-13T11:42:46;102495.97;;;7.84;100.00
49122;BME280;35529;44.342;25.944;2023-02-13T11:45:23;102495.84;;;7.86;100.00
49122;BME280;35529;44.342;25.944;2023-02-13T11:48:27;102478.75;;;7.90;100.00
49122;BME280;35529;44.342;25.944;2023-02-13T12:13:50;102448.41;;;7.94;100.00
49122;BME280;35529;44.342;25.944;2023-02-13T12:16:29;102459.47;;;7.99;100.00
49122;BME280;35529;44.342;25.944;2023-02-13T12:23:59;102451.06;;;8.15;100.00
49122;BME280;35529;44.342;25.944;2023-02-13T12:26:32;102441.56;;;8.13;100.00
49122;BME280;35529;44.342;25.944;2023-02-13T12:31:28;102437.97;;;8.14;100.00
49122;BME280;35529;44.342;25.944;2023-02-13T12:36:35;102444.44;;;8.31;100.00
49122;BME280;35529;44.342;25.944;2023-02-13T12:39:39;102439.97;;;8.31;100.00
49122;BME280;35529;44.342;25.944;2023-02-13T12:42:31;102446.66;;;8.26;100.00
49122;BME280;35529;44.342;25.944;2023-02-13T12:53:09;102443.84;;;8.17;100.00
49122;BME280;35529;44.342;25.944;2023-02-13T13:12:34;102423.16;;;8.42;100.00
49122;BME280;35529;44.342;25.944;2023-02-13T13:23:28;102398.53;;;8.11;100.00
49122;BME280;35529;44.342;25.944;2023-02-13T13:28:27;102386.72;;;8.15;100.00
49122;BME280;35529;44.342;25.944;2023-02-13T13:30:56;102381.72;;;8.12;100.00
49122;BME280;35529;44.342;25.944;2023-02-13T13:33:23;102387.84;;;8.22;100.00
49122;BME280;35529;44.342;25.944;2023-02-13T13:36:10;102383.41;;;8.22;100.00
49122;BME280;35529;44.342;25.944;2023-02-13T13:38:41;102379.22;;;8.20;100.00
49122;BME280;35529;44.342;25.944;2023-02-13T13:49:17;102377.91;;;8.04;100.00
49122;BME280;35529;44.342;25.944;2023-02-13T14:03:21;102379.53;;;7.96;100.00
49122;BME280;35529;44.342;25.944;2023-02-13T14:06:00;102375.81;;;7.98;100.00
49122;BME280;35529;44.342;25.944;2023-02-13T14:35:26;102359.66;;;8.01;100.00
49122;BME280;35529;44.342;25.944;2023-02-13T14:37:57;102370.50;;;7.98;100.00
49122;BME280;35529;44.342;25.944;2023-02-13T14:45:40;102357.75;;;7.82;100.00
49122;BME280;35529;44.342;25.944;2023-02-13T14:48:12;102362.34;;;7.80;100.00
49122;BME280;35529;44.342;25.944;2023-02-13T14:50:43;102352.41;;;7.72;100.00
49122;BME280;35529;44.342;25.944;2023-02-13T14:53:27;102351.00;;;7.68;100.00
49122;BME280;35529;44.342;25.944;2023-02-13T14:55:56;102356.81;;;7.62;100.00
49122;BME280;35529;44.342;25.944;2023-02-13T14:58:32;102354.56;;;7.58;100.00
49122;BME280;35529;44.342;25.944;2023-02-13T15:49:38;102353.75;;;5.46;100.00
49122;BME280;35529;44.342;25.944;2023-02-13T15:52:08;102369.19;;;5.40;100.00
49122;BME280;35529;44.342;25.944;2023-02-13T15:54:46;102365.78;;;5.26;100.00
49122;BME280;35529;44.342;25.944;2023-02-13T15:57:12;102365.78;;;5.26;100.00
49122;BME280;35529;44.342;25.944;2023-02-13T15:59:39;102371.53;;;5.20;100.00
49122;BME280;35529;44.342;25.944;2023-02-13T16:02:09;102369.22;;;5.15;100.00
49122;BME280;35529;44.342;25.944;2023-02-13T16:04:37;102364.91;;;5.14;100.00
49122;BME280;35529;44.342;25.944;2023-02-13T16:07:07;102369.91;;;5.06;100.00
49122;BME280;35529;44.342;25.944;2023-02-13T16:09:34;102370.13;;;5.03;100.00
49122;BME280;35529;44.342;25.944;2023-02-13T16:12:20;102369.63;;;4.98;100.00
49122;BME280;35529;44.342;25.944;2023-02-13T16:14:50;102365.91;;;4.89;100.00
49122;BME280;35529;44.342;25.944;2023-02-13T16:17:20;102363.81;;;4.81;100.00
49122;BME280;35529;44.342;25.944;2023-02-13T16:19:52;102364.13;;;4.77;100.00
49122;BME280;35529;44.342;25.944;2023-02-13T16:24:46;102365.38;;;4.60;100.00
49122;BME280;35529;44.342;25.944;2023-02-13T16:27:14;102365.69;;;4.55;100.00
49122;BME280;35529;44.342;25.944;2023-02-13T16:29:44;102371.84;;;4.43;100.00
49122;BME280;35529;44.342;25.944;2023-02-13T16:32:16;102377.44;;;4.38;100.00
49122;BME280;35529;44.342;25.944;2023-02-13T16:34:44;102366.41;;;4.33;100.00
49122;BME280;35529;44.342;25.944;2023-02-13T16:37:27;102367.75;;;4.26;100.00
49122;BME280;35529;44.342;25.944;2023-02-13T16:39:54;102369.28;;;4.17;100.00
49122;BME280;35529;44.342;25.944;2023-02-13T16:42:20;102362.03;;;4.08;100.00
49122;BME280;35529;44.342;25.944;2023-02-13T16:44:46;102360.84;;;3.99;100.00
49122;BME280;35529;44.342;25.944;2023-02-13T16:47:19;102376.97;;;3.94;100.00
49122;BME280;35529;44.342;25.944;2023-02-13T16:49:48;102363.50;;;3.86;100.00
49122;BME280;35529;44.342;25.944;2023-02-13T16:52:17;102353.19;;;3.83;100.00
49122;BME280;35529;44.342;25.944;2023-02-13T16:54:49;102360.47;;;3.79;100.00
49122;BME280;35529;44.342;25.944;2023-02-13T16:57:18;102363.28;;;3.76;100.00